Time;durP1;ratioP1;P1;durP2;ratioP2;P2;SDS_P1;SDS_P2;PMS_P1;PMS_P2;Temp;Humidity;BMP_temperature;BMP_pressure;BME280_temperature;BME280_humidity;BME280_pressure;Samples;Min_cycle;Max_cycle;Signal;HPM_P1;HPM_P2
2022/03/19 00:02:11;;;;;;;36.65;24.95;;;;;;;;;;7331076;19;153720;-15
2022/03/19 00:04:42;;;;;;;33.00;22.53;;;;;;;;;;7334580;19;161875;-14
2022/03/19 00:07:15;;;;;;;33.10;22.83;;;;;;;;;;7328256;19;162228;-13
2022/03/19 00:09:50;;;;;;;31.38;21.60;;;;;;;;;;7330416;19;153905;-12
2022/03/19 00:12:21;;;;;;;35.17;22.17;;;;;;;;;;7327802;19;153431;-13
2022/03/19 00:14:52;;;;;;;31.15;20.55;;;;;;;;;;7329834;19;162136;-13
2022/03/19 00:17:23;;;;;;;34.40;21.42;;;;;;;;;;7332097;19;162363;-14
2022/03/19 00:19:55;;;;;;;32.90;21.45;;;;;;;;;;7331834;19;153957;-14
2022/03/19 00:22:27;;;;;;;31.25;20.20;;;;;;;;;;7331015;19;153640;-15
2022/03/19 00:25:02;;;;;;;27.95;20.70;;;;;;;;;;7331826;19;162266;-14
2022/03/19 00:27:33;;;;;;;26.40;19.10;;;;;;;;;;7331638;19;162372;-14
2022/03/19 00:30:05;;;;;;;27.20;19.02;;;;;;;;;;7329854;19;154066;-14
2022/03/19 00:32:36;;;;;;;29.48;17.75;;;;;;;;;;7330867;19;153562;-14
2022/03/19 12:13:44;;;;;;;4.10;2.40;;;;;;;;;;7370703;19;132482;-14
2022/03/19 12:16:37;;;;;;;3.65;2.63;;;;;;;;;;7363807;19;153573;-13
2022/03/19 12:19:09;;;;;;;2.60;2.27;;;;;;;;;;7364850;19;161858;-15
2022/03/19 12:21:43;;;;;;;4.28;2.10;;;;;;;;;;7364156;19;162202;-13
2022/03/19 12:24:41;;;;;;;3.45;2.28;;;;;;;;;;7364611;19;153965;-13
2022/03/19 12:27:13;;;;;;;4.88;2.50;;;;;;;;;;7362750;19;153559;-14
2022/03/19 12:29:47;;;;;;;2.45;2.25;;;;;;;;;;7364304;19;161865;-13
2022/03/19 12:32:22;;;;;;;4.63;2.55;;;;;;;;;;7362048;19;162610;-14
2022/03/19 12:35:00;;;;;;;2.85;2.20;;;;;;;;;;7366070;19;154117;-14
2022/03/19 12:37:31;;;;;;;3.72;2.33;;;;;;;;;;7364317;19;153519;-14
2022/03/19 12:40:04;;;;;;;3.50;2.53;;;;;;;;;;7362712;19;161964;-13
2022/03/19 12:42:35;;;;;;;4.63;2.53;;;;;;;;;;7363718;19;162321;-13
2022/03/19 12:45:11;;;;;;;2.58;1.92;;;;;;;;;;7363918;19;154258;-15
2022/03/19 12:47:42;;;;;;;2.10;1.90;;;;;;;;;;7363785;19;153462;-14
2022/03/19 12:50:14;;;;;;;2.42;2.10;;;;;;;;;;7364108;19;161804;-14
2022/03/19 12:52:46;;;;;;;5.63;2.40;;;;;;;;;;7361433;19;162440;-15
2022/03/19 12:55:24;;;;;;;2.77;2.13;;;;;;;;;;7363390;19;153885;-13
2022/03/19 12:57:59;;;;;;;2.55;2.05;;;;;;;;;;7363507;19;153887;-14
2022/03/19 13:00:34;;;;;;;4.90;2.10;;;;;;;;;;7363020;19;161933;-16
2022/03/19 13:03:05;;;;;;;3.10;2.30;;;;;;;;;;7361842;19;162649;-13
2022/03/19 13:05:36;;;;;;;2.72;1.80;;;;;;;;;;7366462;19;153908;-16
2022/03/19 13:08:10;;;;;;;4.13;2.78;;;;;;;;;;7363423;19;154174;-13
2022/03/19 13:10:46;;;;;;;3.38;2.33;;;;;;;;;;7363027;19;161924;-13
2022/03/19 13:13:18;;;;;;;3.90;1.92;;;;;;;;;;7343202;19;162566;-14
2022/03/19 13:15:54;;;;;;;2.78;2.10;;;;;;;;;;7334549;19;154237;-13
2022/03/19 13:18:30;;;;;;;4.10;2.28;;;;;;;;;;7334035;19;153602;-13
2022/03/19 13:21:07;;;;;;;3.50;2.13;;;;;;;;;;7336265;19;161886;-14
2022/03/19 13:23:40;;;;;;;2.92;2.08;;;;;;;;;;7333624;19;162629;-13
2022/03/19 13:26:15;;;;;;;2.33;2.00;;;;;;;;;;7334313;19;153988;-13
2022/03/19 13:29:02;;;;;;;3.55;1.98;;;;;;;;;;7333899;19;153720;-15
2022/03/19 13:31:40;;;;;;;4.20;2.30;;;;;;;;;;7333216;19;162115;-15
2022/03/19 13:34:18;;;;;;;3.05;2.13;;;;;;;;;;7335501;19;162456;-15
2022/03/19 13:36:55;;;;;;;4.05;2.10;;;;;;;;;;7332873;19;153996;-14
2022/03/19 13:39:29;;;;;;;3.15;2.28;;;;;;;;;;7334195;19;153642;-16
2022/03/19 13:42:06;;;;;;;3.53;2.33;;;;;;;;;;7333561;19;161956;-15
2022/03/19 13:44:39;;;;;;;4.30;2.10;;;;;;;;;;7333401;19;162691;-14
2022/03/19 13:47:17;;;;;;;3.20;2.03;;;;;;;;;;7333774;19;153922;-13
2022/03/19 13:49:53;;;;;;;3.85;2.28;;;;;;;;;;7335424;19;153538;-13
2022/03/19 13:52:32;;;;;;;8.10;2.60;;;;;;;;;;7336172;19;161923;-14
2022/03/19 13:55:07;;;;;;;5.35;2.35;;;;;;;;;;7333246;19;162325;-15
2022/03/19 13:57:41;;;;;;;5.30;2.58;;;;;;;;;;7333202;19;154209;-14
2022/03/19 14:00:19;;;;;;;5.38;2.38;;;;;;;;;;7333035;19;153755;-14
2022/03/19 14:02:57;;;;;;;6.20;2.42;;;;;;;;;;7332529;19;161796;-15
2022/03/19 14:05:30;;;;;;;3.63;2.35;;;;;;;;;;7335045;19;162507;-14
2022/03/19 14:08:03;;;;;;;;;;;;;;;;;;7333320;19;153948;-15
2022/03/19 14:10:36;;;;;;;4.40;2.43;;;;;;;;;;7332661;19;153313;-14
2022/03/19 14:13:10;;;;;;;12.35;6.22;;;;;;;;;;7330867;19;161877;-13
2022/03/19 14:15:44;;;;;;;25.98;13.80;;;;;;;;;;7332488;19;162521;-14
2022/03/19 14:18:25;;;;;;;37.42;19.50;;;;;;;;;;7332845;19;154058;-13
2022/03/19 14:21:00;;;;;;;45.63;24.48;;;;;;;;;;7336273;19;153604;-14
2022/03/19 14:23:33;;;;;;;45.63;26.90;;;;;;;;;;7330835;19;162062;-14
2022/03/19 14:26:05;;;;;;;51.88;28.50;;;;;;;;;;7329975;19;162386;-13
2022/03/19 14:28:36;;;;;;;55.88;29.13;;;;;;;;;;7332504;19;153939;-15
2022/03/19 14:31:08;;;;;;;52.42;29.55;;;;;;;;;;7332265;19;153827;-17
2022/03/19 14:33:42;;;;;;;53.67;31.90;;;;;;;;;;7329839;19;162035;-13
2022/03/19 14:36:14;;;;;;;55.55;29.08;;;;;;;;;;7335774;19;162804;-14
2022/03/19 14:38:49;;;;;;;51.88;27.45;;;;;;;;;;7331910;19;153935;-15
2022/03/19 14:41:22;;;;;;;47.95;28.50;;;;;;;;;;7331580;19;153927;-13
2022/03/19 14:43:54;;;;;;;48.17;29.30;;;;;;;;;;7335952;19;161921;-16
2022/03/19 14:46:29;;;;;;;46.05;26.20;;;;;;;;;;7332947;19;162586;-14
2022/03/19 14:49:03;;;;;;;44.45;26.52;;;;;;;;;;7334154;19;154274;-14
2022/03/19 14:51:34;;;;;;;44.58;27.08;;;;;;;;;;7330730;19;153617;-13
2022/03/19 14:54:06;;;;;;;44.65;27.00;;;;;;;;;;7329086;19;161802;-13
2022/03/19 14:56:39;;;;;;;42.88;26.10;;;;;;;;;;7331248;19;162718;-14
2022/03/19 14:59:10;;;;;;;45.93;27.47;;;;;;;;;;7330413;19;153948;-14
2022/03/19 15:01:42;;;;;;;50.13;26.05;;;;;;;;;;7330814;19;153613;-14
2022/03/19 15:04:16;;;;;;;44.92;24.40;;;;;;;;;;7332745;19;161820;-15
2022/03/19 15:06:54;;;;;;;46.22;27.10;;;;;;;;;;7332781;19;162333;-15
2022/03/19 15:09:25;;;;;;;45.30;26.25;;;;;;;;;;7333153;19;154045;-15
2022/03/19 15:11:56;;;;;;;49.13;25.48;;;;;;;;;;7332407;19;153724;-14
2022/03/19 15:14:28;;;;;;;48.20;26.25;;;;;;;;;;7332139;19;161839;-14
2022/03/19 15:17:00;;;;;;;42.63;25.40;;;;;;;;;;7331560;19;162370;-16
2022/03/19 15:19:34;;;;;;;38.50;24.85;;;;;;;;;;7332917;19;154015;-15
2022/03/19 15:22:06;;;;;;;39.33;24.48;;;;;;;;;;7333973;19;153602;-16
2022/03/19 15:24:52;;;;;;;37.42;22.88;;;;;;;;;;7331387;19;161675;-15
2022/03/19 15:27:24;;;;;;;41.38;24.15;;;;;;;;;;7332429;19;162324;-14
2022/03/19 15:29:56;;;;;;;45.63;23.88;;;;;;;;;;7333601;19;153885;-13
2022/03/19 15:32:31;;;;;;;36.87;22.03;;;;;;;;;;7334422;19;153841;-15
2022/03/19 15:35:06;;;;;;;38.72;22.73;;;;;;;;;;7328863;19;162099;-15
2022/03/19 15:37:37;;;;;;;39.33;22.52;;;;;;;;;;7331732;19;162376;-14
2022/03/19 15:40:11;;;;;;;39.63;22.25;;;;;;;;;;7333678;19;153958;-13
2022/03/19 15:42:43;;;;;;;35.70;22.40;;;;;;;;;;7330623;19;153624;-16
2022/03/19 15:45:15;;;;;;;28.85;19.55;;;;;;;;;;7330187;19;162265;-14
2022/03/19 15:47:46;;;;;;;38.95;20.80;;;;;;;;;;7332277;19;162790;-14
2022/03/19 15:50:21;;;;;;;33.83;21.02;;;;;;;;;;7333058;19;153950;-14
2022/03/19 15:52:52;;;;;;;31.45;20.38;;;;;;;;;;7330092;19;153618;-16
2022/03/19 15:55:25;;;;;;;31.17;19.95;;;;;;;;;;7329860;19;161830;-14
2022/03/19 15:57:59;;;;;;;35.10;19.90;;;;;;;;;;7332230;19;162345;-16
2022/03/19 16:00:30;;;;;;;31.42;20.58;;;;;;;;;;7333508;19;154115;-14
2022/03/19 16:03:02;;;;;;;33.85;18.92;;;;;;;;;;7330435;19;153988;-20
2022/03/19 16:05:36;;;;;;;28.80;18.35;;;;;;;;;;7331611;19;162085;-15
2022/03/19 16:08:07;;;;;;;35.70;19.15;;;;;;;;;;7332499;19;162365;-16
2022/03/19 16:10:38;;;;;;;31.83;19.17;;;;;;;;;;7333558;19;154433;-20
2022/03/19 16:13:10;;;;;;;30.45;18.02;;;;;;;;;;7328030;19;153657;-15
2022/03/19 16:15:41;;;;;;;27.38;18.05;;;;;;;;;;7330360;19;161680;-13
2022/03/19 16:18:13;;;;;;;26.65;17.00;;;;;;;;;;7332546;19;162404;-15
2022/03/19 16:20:47;;;;;;;29.13;17.48;;;;;;;;;;7331182;19;153894;-16
2022/03/19 16:23:21;;;;;;;26.85;17.92;;;;;;;;;;7329698;19;153565;-14
2022/03/19 16:25:53;;;;;;;27.42;17.88;;;;;;;;;;7332608;19;161812;-14
2022/03/19 16:28:24;;;;;;;29.00;17.77;;;;;;;;;;7330772;19;162594;-15
2022/03/19 16:30:56;;;;;;;30.50;17.80;;;;;;;;;;7327876;19;154214;-15
2022/03/19 16:33:27;;;;;;;26.85;16.65;;;;;;;;;;7330272;19;153854;-14
2022/03/19 16:36:02;;;;;;;31.02;17.85;;;;;;;;;;7327031;19;161967;-14
2022/03/19 16:38:34;;;;;;;29.77;18.15;;;;;;;;;;7331823;19;162277;-14
2022/03/19 16:41:07;;;;;;;25.10;15.65;;;;;;;;;;7327825;19;154031;-15
2022/03/19 16:43:38;;;;;;;25.13;15.95;;;;;;;;;;7326578;19;153610;-15
2022/03/19 16:46:10;;;;;;;24.58;17.08;;;;;;;;;;7328078;19;161761;-15
2022/03/19 16:48:41;;;;;;;25.38;16.75;;;;;;;;;;7332998;19;162410;-15
2022/03/19 16:51:15;;;;;;;27.33;17.15;;;;;;;;;;7336144;19;153942;-15
2022/03/19 16:53:46;;;;;;;26.42;16.02;;;;;;;;;;7336804;19;153648;-15
2022/03/19 16:56:17;;;;;;;27.90;17.40;;;;;;;;;;7337156;19;161787;-14
2022/03/19 16:58:48;;;;;;;28.33;15.88;;;;;;;;;;7337165;19;162418;-15
2022/03/19 17:01:19;;;;;;;27.00;16.73;;;;;;;;;;7337658;19;153751;-15
2022/03/19 17:03:51;;;;;;;24.98;15.93;;;;;;;;;;7337874;19;153619;-15
2022/03/19 17:06:25;;;;;;;24.77;16.45;;;;;;;;;;7337597;19;161874;-15
2022/03/19 17:08:56;;;;;;;23.85;15.10;;;;;;;;;;7337011;19;162623;-16
2022/03/19 17:11:27;;;;;;;25.10;15.80;;;;;;;;;;7335241;19;153825;-14
2022/03/19 17:13:58;;;;;;;23.67;15.57;;;;;;;;;;7336130;19;153713;-16
2022/03/19 17:16:33;;;;;;;22.83;14.38;;;;;;;;;;7336437;19;161810;-14
2022/03/19 17:19:04;;;;;;;21.23;14.57;;;;;;;;;;7336197;19;162522;-15
2022/03/19 17:21:38;;;;;;;22.50;15.43;;;;;;;;;;7336898;19;153901;-15
2022/03/19 17:24:09;;;;;;;20.23;13.73;;;;;;;;;;7336770;19;153611;-15
2022/03/19 17:26:41;;;;;;;24.95;14.93;;;;;;;;;;7334013;19;162180;-16
2022/03/19 17:29:12;;;;;;;20.88;13.98;;;;;;;;;;7336272;19;162539;-15
2022/03/19 17:31:43;;;;;;;21.23;14.25;;;;;;;;;;7336701;19;154113;-15
2022/03/19 17:34:14;;;;;;;22.95;14.48;;;;;;;;;;7336817;19;153605;-15
2022/03/19 17:36:49;;;;;;;23.55;14.55;;;;;;;;;;7336306;19;162101;-16
2022/03/19 17:39:21;;;;;;;20.48;13.27;;;;;;;;;;7335289;19;162635;-16
2022/03/19 17:41:53;;;;;;;19.83;13.73;;;;;;;;;;7335223;19;154081;-14
2022/03/19 17:44:24;;;;;;;20.33;14.15;;;;;;;;;;7335672;19;153939;-14
2022/03/19 17:46:56;;;;;;;22.27;13.32;;;;;;;;;;7334922;19;162348;-14
2022/03/19 17:49:28;;;;;;;18.83;13.55;;;;;;;;;;7335233;19;162393;-15
2022/03/19 17:52:02;;;;;;;19.63;13.80;;;;;;;;;;7333942;19;154647;-16
2022/03/19 17:54:34;;;;;;;24.33;14.05;;;;;;;;;;7332836;19;153683;-17
2022/03/19 17:57:06;;;;;;;23.00;14.25;;;;;;;;;;7334822;19;161923;-15
2022/03/19 17:59:39;;;;;;;20.33;13.15;;;;;;;;;;7334883;19;162404;-16
2022/03/19 18:02:10;;;;;;;19.73;12.63;;;;;;;;;;7335839;19;153914;-15
2022/03/19 18:04:42;;;;;;;21.92;13.18;;;;;;;;;;7335585;19;153581;-17
2022/03/19 18:07:16;;;;;;;21.00;13.45;;;;;;;;;;7335718;19;161805;-16
2022/03/19 18:09:48;;;;;;;21.45;13.65;;;;;;;;;;7334356;19;163166;-16
2022/03/19 18:12:19;;;;;;;18.23;12.53;;;;;;;;;;7333115;19;154159;-15
2022/03/19 18:14:51;;;;;;;19.20;12.30;;;;;;;;;;7335299;19;153555;-14
2022/03/19 18:17:23;;;;;;;17.77;12.32;;;;;;;;;;7334117;19;161851;-16
2022/03/19 18:19:54;;;;;;;20.00;11.95;;;;;;;;;;7334362;19;162552;-16
2022/03/19 18:22:28;;;;;;;18.60;12.35;;;;;;;;;;7330778;19;154246;-16
2022/03/19 18:24:59;;;;;;;18.98;12.32;;;;;;;;;;7334907;19;154234;-15
2022/03/19 18:27:31;;;;;;;18.45;12.27;;;;;;;;;;7334443;19;161707;-15
2022/03/19 18:30:02;;;;;;;18.25;11.45;;;;;;;;;;7334824;19;162556;-15
2022/03/19 18:32:33;;;;;;;17.08;11.77;;;;;;;;;;7334850;19;153996;-14
2022/03/19 18:35:05;;;;;;;20.00;11.43;;;;;;;;;;7334706;19;154358;-15
2022/03/19 18:37:39;;;;;;;18.75;11.75;;;;;;;;;;7334901;19;161812;-15
2022/03/19 18:40:12;;;;;;;18.42;11.65;;;;;;;;;;7332966;19;162432;-15
2022/03/19 18:42:43;;;;;;;19.42;11.95;;;;;;;;;;7334469;19;153951;-15
2022/03/19 18:45:15;;;;;;;15.35;10.77;;;;;;;;;;7332387;19;153256;-15
2022/03/19 18:47:46;;;;;;;20.15;12.10;;;;;;;;;;7332033;19;162073;-15
2022/03/19 18:50:19;;;;;;;15.35;10.25;;;;;;;;;;7333647;19;162494;-14
2022/03/19 18:52:53;;;;;;;14.13;8.45;;;;;;;;;;7335809;19;154048;-13
2022/03/19 18:55:42;;;;;;;14.65;9.15;;;;;;;;;;7334630;19;153608;-14
2022/03/19 18:58:14;;;;;;;14.43;9.45;;;;;;;;;;7333678;19;161873;-15
2022/03/19 19:00:45;;;;;;;17.52;9.82;;;;;;;;;;7334907;19;162425;-16
2022/03/19 19:03:16;;;;;;;15.10;10.13;;;;;;;;;;7333009;19;153910;-13
2022/03/19 19:05:48;;;;;;;12.75;9.20;;;;;;;;;;7334522;19;153692;-14
2022/03/19 19:08:22;;;;;;;15.73;9.77;;;;;;;;;;7333577;19;161853;-13
2022/03/19 19:10:54;;;;;;;14.88;8.70;;;;;;;;;;7329438;19;162341;-13
2022/03/19 19:13:25;;;;;;;13.65;8.57;;;;;;;;;;7333855;19;153997;-13
2022/03/19 19:15:56;;;;;;;14.45;8.88;;;;;;;;;;7332995;19;153563;-14
2022/03/19 19:18:28;;;;;;;14.50;8.82;;;;;;;;;;7333900;19;162047;-12
2022/03/19 19:20:59;;;;;;;13.90;9.52;;;;;;;;;;7329631;19;162476;-13
2022/03/19 19:23:33;;;;;;;14.23;8.57;;;;;;;;;;7332316;19;154316;-13
2022/03/19 19:26:06;;;;;;;12.75;8.63;;;;;;;;;;7333358;19;153563;-15
2022/03/19 19:28:38;;;;;;;17.52;10.10;;;;;;;;;;7333824;19;162150;-14
2022/03/19 19:31:09;;;;;;;15.50;9.13;;;;;;;;;;7331004;19;162665;-13
2022/03/19 19:33:41;;;;;;;14.07;8.93;;;;;;;;;;7332462;19;154016;-13
2022/03/19 19:36:12;;;;;;;13.27;8.70;;;;;;;;;;7332639;19;153527;-13
2022/03/19 19:38:46;;;;;;;14.27;8.57;;;;;;;;;;7333682;19;162361;-16
2022/03/19 19:41:19;;;;;;;13.40;8.45;;;;;;;;;;7329864;19;162372;-14
2022/03/19 19:43:51;;;;;;;10.77;8.93;;;;;;;;;;7334174;19;154075;-14
2022/03/19 19:46:22;;;;;;;14.15;8.65;;;;;;;;;;7332805;19;153555;-15
2022/03/19 19:48:53;;;;;;;12.60;7.43;;;;;;;;;;7333208;19;162056;-17
2022/03/19 19:51:24;;;;;;;14.63;8.38;;;;;;;;;;7331040;19;162262;-13
2022/03/19 19:53:59;;;;;;;13.27;8.13;;;;;;;;;;7332628;19;154698;-14
2022/03/19 19:57:56;;;;;;;12.02;8.07;;;;;;;;;;7332727;19;153533;-12
2022/03/19 19:59:22;;;;;;;11.48;8.20;;;;;;;;;;7331057;19;162054;-15
2022/03/19 20:01:53;;;;;;;12.55;8.10;;;;;;;;;;7331382;19;163015;-13
2022/03/19 20:04:24;;;;;;;10.70;7.65;;;;;;;;;;7333313;19;154000;-15
2022/03/19 20:09:42;;;;;;;10.55;7.57;;;;;;;;;;7332486;19;161649;-16
2022/03/19 20:12:13;;;;;;;36.13;15.77;;;;;;;;;;7329935;19;162339;-14
2022/03/19 20:14:45;;;;;;;28.58;13.93;;;;;;;;;;7333470;19;154006;-16
2022/03/19 20:17:16;;;;;;;32.92;15.93;;;;;;;;;;7328717;19;153585;-17
2022/03/19 20:19:47;;;;;;;26.27;14.05;;;;;;;;;;7330936;19;161801;-15
2022/03/19 20:22:21;;;;;;;32.88;14.38;;;;;;;;;;7330945;19;162654;-17
2022/03/19 20:24:56;;;;;;;27.20;13.80;;;;;;;;;;7338700;19;154549;-15
2022/03/19 20:27:28;;;;;;;38.42;18.92;;;;;;;;;;7337885;19;153573;-14
2022/03/19 20:29:59;;;;;;;48.47;21.90;;;;;;;;;;7337622;19;162037;-16
2022/03/19 20:32:31;;;;;;;31.25;15.98;;;;;;;;;;7337895;19;162547;-14
2022/03/19 20:35:02;;;;;;;29.45;15.63;;;;;;;;;;7337980;19;154102;-14
2022/03/19 20:37:34;;;;;;;31.90;15.85;;;;;;;;;;7334607;19;153661;-14
2022/03/19 20:40:11;;;;;;;29.35;14.93;;;;;;;;;;7337600;19;161833;-14
2022/03/19 20:42:44;;;;;;;25.77;13.90;;;;;;;;;;7338010;19;162355;-13
2022/03/19 20:45:15;;;;;;;27.63;14.02;;;;;;;;;;7334296;19;154118;-13
2022/03/19 20:47:47;;;;;;;28.20;16.00;;;;;;;;;;7336983;19;154445;-13
2022/03/19 20:50:22;;;;;;;28.23;14.38;;;;;;;;;;7337950;19;161708;-13
2022/03/19 20:52:55;;;;;;;27.30;14.35;;;;;;;;;;7338030;19;162519;-13
2022/03/19 20:55:30;;;;;;;26.33;14.50;;;;;;;;;;7334481;19;154013;-13
2022/03/19 20:58:02;;;;;;;27.92;14.15;;;;;;;;;;7336005;19;153598;-15
2022/03/19 21:00:35;;;;;;;29.38;14.25;;;;;;;;;;7338173;19;161822;-13
2022/03/19 21:03:08;;;;;;;25.05;14.15;;;;;;;;;;7335974;19;162177;-13
2022/03/19 21:05:39;;;;;;;;;;;;;;;;;;7337964;19;154040;-13
2022/03/19 21:08:11;;;;;;;24.48;13.02;;;;;;;;;;7337862;19;153489;-13
2022/03/19 21:11:38;;;;;;;25.90;13.33;;;;;;;;;;7338043;19;161895;-14
2022/03/19 21:13:42;;;;;;;24.52;13.98;;;;;;;;;;7334900;19;162395;-14
2022/03/19 21:16:14;;;;;;;25.48;13.75;;;;;;;;;;7336743;19;154294;-15
2022/03/19 21:18:47;;;;;;;23.73;13.00;;;;;;;;;;7336512;19;153607;-26
2022/03/19 21:21:19;;;;;;;20.75;12.73;;;;;;;;;;7334524;19;161973;-14
2022/03/19 21:23:50;;;;;;;27.63;13.85;;;;;;;;;;7336827;19;162278;-14
2022/03/19 21:26:24;;;;;;;89.78;41.33;;;;;;;;;;7334741;19;154011;-15
2022/03/19 21:28:57;;;;;;;92.88;42.03;;;;;;;;;;7336189;19;153745;-13
2022/03/19 21:31:29;;;;;;;89.03;42.92;;;;;;;;;;7334168;19;162007;-15
2022/03/19 21:34:00;;;;;;;83.75;42.92;;;;;;;;;;7333944;19;162345;-14
2022/03/19 21:36:32;;;;;;;70.80;36.55;;;;;;;;;;7331607;19;154084;-14
2022/03/19 21:41:50;;;;;;;75.68;36.58;;;;;;;;;;7330262;19;161835;-13
2022/03/19 21:44:21;;;;;;;68.80;35.40;;;;;;;;;;7332109;19;162724;-15
2022/03/19 21:46:54;;;;;;;66.03;32.60;;;;;;;;;;7334201;19;153707;-14
2022/03/19 21:49:26;;;;;;;62.28;32.50;;;;;;;;;;7334830;19;153780;-14
2022/03/19 21:51:57;;;;;;;62.72;33.35;;;;;;;;;;7335737;19;161820;-15
2022/03/19 21:54:28;;;;;;;60.58;31.85;;;;;;;;;;7334891;19;162439;-14
2022/03/19 21:57:02;;;;;;;56.95;31.30;;;;;;;;;;7334300;19;153952;-16
2022/03/19 21:59:34;;;;;;;68.40;33.70;;;;;;;;;;7332943;19;153783;-14
2022/03/19 22:02:06;;;;;;;57.92;31.05;;;;;;;;;;7334641;19;162768;-15
2022/03/19 22:04:37;;;;;;;56.43;31.50;;;;;;;;;;7333628;19;162542;-14
2022/03/19 22:07:08;;;;;;;58.58;30.42;;;;;;;;;;7334691;19;154011;-14
2022/03/19 22:09:40;;;;;;;56.30;30.50;;;;;;;;;;7332669;19;153875;-14
2022/03/19 22:12:14;;;;;;;50.65;29.40;;;;;;;;;;7332325;19;161795;-26
2022/03/19 22:14:45;;;;;;;47.08;28.60;;;;;;;;;;7334466;19;162590;-16
2022/03/19 22:17:17;;;;;;;59.85;30.48;;;;;;;;;;7334394;19;154067;-14
2022/03/19 22:22:32;;;;;;;55.92;31.23;;;;;;;;;;7334183;19;161842;-16
2022/03/19 22:25:04;;;;;;;58.40;32.17;;;;;;;;;;7334258;19;162578;-15
2022/03/19 22:27:38;;;;;;;54.60;30.27;;;;;;;;;;7332340;19;154126;-16
2022/03/19 22:30:11;;;;;;;47.78;27.98;;;;;;;;;;7333964;19;153599;-15
2022/03/19 22:32:43;;;;;;;;;;;;;;;;;;7332609;19;162139;-15
2022/03/19 22:35:16;;;;;;;54.03;29.65;;;;;;;;;;7334225;19;162609;-15
2022/03/19 22:37:48;;;;;;;54.13;28.92;;;;;;;;;;7333459;19;155949;-16
2022/03/19 22:40:20;;;;;;;54.13;30.05;;;;;;;;;;7333904;19;153645;-15
2022/03/19 22:42:55;;;;;;;49.70;28.33;;;;;;;;;;7333284;19;161867;-16
2022/03/19 22:45:26;;;;;;;52.17;29.40;;;;;;;;;;7330925;19;162276;-15
2022/03/19 22:47:59;;;;;;;49.13;27.83;;;;;;;;;;7332955;19;154255;-16
2022/03/19 22:50:31;;;;;;;43.40;26.67;;;;;;;;;;7331937;19;153639;-14
2022/03/19 22:53:03;;;;;;;47.07;25.60;;;;;;;;;;7333080;19;161704;-14
2022/03/19 22:55:35;;;;;;;49.27;27.53;;;;;;;;;;7331778;19;162326;-16
2022/03/19 22:58:09;;;;;;;51.20;27.10;;;;;;;;;;7333004;19;154103;-15
2022/03/19 23:00:48;;;;;;;49.88;27.00;;;;;;;;;;7333374;19;153754;-14
2022/03/19 23:03:19;;;;;;;42.97;26.35;;;;;;;;;;7330607;19;161897;-16
2022/03/19 23:05:50;;;;;;;49.85;26.48;;;;;;;;;;7330948;19;162622;-15
2022/03/19 23:08:23;;;;;;;47.25;24.63;;;;;;;;;;7333789;19;153962;-15
2022/03/19 23:13:41;;;;;;;42.60;24.10;;;;;;;;;;7333214;19;161866;-16
2022/03/19 23:16:13;;;;;;;41.30;25.27;;;;;;;;;;7331235;19;162344;-15
2022/03/19 23:18:45;;;;;;;40.35;25.02;;;;;;;;;;7331998;19;154207;-15
2022/03/19 23:21:16;;;;;;;40.20;25.17;;;;;;;;;;7330063;19;153534;-16
2022/03/19 23:23:47;;;;;;;38.72;22.77;;;;;;;;;;7328411;19;161929;-14
2022/03/19 23:26:20;;;;;;;47.45;25.58;;;;;;;;;;7329693;19;162344;-15
2022/03/19 23:28:54;;;;;;;42.17;24.63;;;;;;;;;;7331928;19;154082;-16
2022/03/19 23:31:25;;;;;;;39.75;23.52;;;;;;;;;;7330704;19;153520;-15
2022/03/19 23:33:58;;;;;;;44.70;23.43;;;;;;;;;;7328732;19;162297;-15
2022/03/19 23:36:30;;;;;;;44.43;23.90;;;;;;;;;;7332488;19;163158;-16
2022/03/19 23:39:05;;;;;;;43.90;25.92;;;;;;;;;;7333737;19;153975;-15
2022/03/19 23:41:36;;;;;;;42.55;23.52;;;;;;;;;;7330863;19;153564;-15
2022/03/19 23:44:10;;;;;;;40.30;23.15;;;;;;;;;;7329842;19;162193;-14
2022/03/19 23:46:41;;;;;;;42.70;22.30;;;;;;;;;;7329495;19;162334;-14
2022/03/19 23:49:13;;;;;;;39.65;22.35;;;;;;;;;;7331723;19;154099;-16
2022/03/19 23:51:44;;;;;;;37.50;22.63;;;;;;;;;;7328442;19;153795;-15
2022/03/19 23:54:16;;;;;;;35.40;22.27;;;;;;;;;;7329372;19;161847;-15
2022/03/19 23:56:47;;;;;;;37.63;23.65;;;;;;;;;;7329401;19;162371;-15
2022/03/19 23:59:21;;;;;;;40.47;23.98;;;;;;;;;;7327723;19;153956;-16
